Time;durP1;ratioP1;P1;durP2;ratioP2;P2;SDS_P1;SDS_P2;PMS_P1;PMS_P2;Temp;Humidity;BMP_temperature;BMP_pressure;BME280_temperature;BME280_humidity;BME280_pressure;Samples;Min_cycle;Max_cycle;Signal;HPM_P1;HPM_P2
2024/02/09 00:01:25;;;;;;;8.97;4.40;;;9.60;94.40;;;9.08;96.61;95916.09;5068908;28;20449;-77
2024/02/09 00:03:53;;;;;;;9.77;5.07;;;9.60;94.50;;;8.91;96.57;95914.34;5062700;28;20541;-77
2024/02/09 00:06:21;;;;;;;10.83;4.43;;;9.60;94.30;;;9.03;96.66;95914.19;5041385;28;20457;-80
2024/02/09 00:08:50;;;;;;;8.20;3.50;;;9.50;94.50;;;8.98;95.98;95889.09;5045590;28;20450;-80
2024/02/09 00:11:18;;;;;;;10.33;4.00;;;9.50;94.60;;;8.97;95.70;95893.66;5066193;28;20449;-78
2024/02/09 00:13:45;;;;;;;6.70;3.63;;;9.60;94.10;;;9.01;95.61;95900.16;5043083;28;20452;-76
2024/02/09 00:16:12;;;;;;;5.60;3.13;;;9.60;94.10;;;8.95;96.12;95885.03;5050224;28;20470;-78
2024/02/09 00:18:40;;;;;;;17.23;4.57;;;9.60;94.00;;;9.05;96.13;95887.81;5067356;28;20457;-78
2024/02/09 00:21:10;;;;;;;7.83;3.40;;;9.60;93.90;;;9.03;95.16;95895.34;5066806;28;20488;-80
2024/02/09 00:23:38;;;;;;;8.40;3.90;;;9.60;93.70;;;9.02;95.63;95895.59;5064814;28;20526;-78
2024/02/09 00:26:07;;;;;;;5.80;3.53;;;9.60;93.50;;;9.07;94.73;95893.75;5068389;28;20557;-77
2024/02/09 00:28:34;;;;;;;14.27;3.97;;;9.60;93.40;;;9.06;94.30;95894.81;5064324;28;20457;-78
2024/02/09 00:31:01;;;;;;;13.30;4.23;;;9.60;93.30;;;9.13;93.77;95902.69;5044439;28;20527;-77
2024/02/09 00:33:29;;;;;;;11.83;4.20;;;9.60;93.10;;;9.14;93.61;95898.09;5065547;28;20461;-78
2024/02/09 00:35:56;;;;;;;11.13;3.80;;;9.60;93.00;;;9.09;93.36;95884.59;5063859;28;20965;-77
2024/02/09 00:38:24;;;;;;;9.03;4.73;;;9.70;93.00;;;9.06;94.06;95897.50;5044260;28;20947;-76
2024/02/09 00:40:51;;;;;;;13.37;3.73;;;9.70;92.90;;;9.15;93.05;95897.03;5055532;28;20460;-79
2024/02/09 00:43:22;;;;;;;7.80;3.73;;;9.70;92.60;;;9.23;92.73;95890.34;5044926;28;20456;-77
2024/02/09 00:45:51;;;;;;;8.40;4.00;;;9.70;92.60;;;8.83;91.89;95838.59;5066794;28;20956;-80
2024/02/09 00:48:19;;;;;;;11.80;3.63;;;9.70;92.20;;;9.21;92.06;95893.31;5065962;28;20445;-78
2024/02/09 00:50:46;;;;;;;10.47;4.77;;;9.80;92.00;;;9.16;91.91;95882.47;5047530;28;20556;-78
2024/02/09 00:53:14;;;;;;;7.80;3.37;;;9.80;92.00;;;9.10;91.82;95878.97;5065934;28;21184;-77
2024/02/09 00:55:41;;;;;;;10.30;3.57;;;9.70;91.90;;;8.96;91.59;95867.78;5067658;28;20913;-79
2024/02/09 00:58:08;;;;;;;10.50;4.37;;;9.70;91.80;;;9.09;91.29;95873.81;5049561;28;20593;-78
2024/02/09 01:00:40;;;;;;;8.10;4.20;;;9.70;91.80;;;9.09;90.86;95873.81;5067757;28;20459;-77
2024/02/09 01:03:07;;;;;;;9.67;3.60;;;9.70;91.50;;;8.78;90.90;95826.75;5066384;28;20500;-78
2024/02/09 01:05:34;;;;;;;10.23;3.90;;;9.70;91.60;;;9.21;90.73;95875.25;5067168;28;20451;-79
2024/02/09 01:08:02;;;;;;;6.60;3.03;;;9.80;91.40;;;9.06;90.01;95864.34;5066001;28;20563;-81
2024/02/09 01:10:31;;;;;;;8.80;2.80;;;9.80;91.10;;;9.15;88.92;95857.44;5048624;28;21182;-79
2024/02/09 02:46:25;;;;;;;10.90;2.90;;;9.50;98.10;;;8.92;100.00;95767.06;5069750;28;20476;-79
2024/02/09 03:05:38;;;;;;;7.07;2.80;;;9.60;99.30;;;8.97;100.00;95737.44;5069882;28;20451;-79
2024/02/09 03:08:08;;;;;;;7.60;3.13;;;9.50;99.50;;;8.95;100.00;95742.28;5047887;28;20815;-77
2024/02/09 03:10:36;;;;;;;9.43;2.90;;;9.50;99.50;;;8.98;100.00;95739.06;5060336;28;20517;-79
2024/02/09 03:13:07;;;;;;;9.60;3.37;;;9.50;99.10;;;8.92;100.00;95732.84;5048441;28;20455;-78
2024/02/09 03:15:34;;;;;;;11.87;3.27;;;9.50;99.00;;;8.87;100.00;95723.91;5069137;28;20901;-78
2024/02/09 03:18:04;;;;;;;6.37;2.90;;;9.50;99.50;;;8.88;100.00;95733.66;5041186;28;20500;-79
2024/02/09 03:20:32;;;;;;;10.80;3.47;;;9.50;99.90;;;8.97;100.00;95736.66;5049276;28;20553;-78
2024/02/09 03:23:01;;;;;;;8.80;3.07;;;9.50;99.80;;;8.81;100.00;95717.72;5062673;28;20461;-77
2024/02/09 03:25:29;;;;;;;10.37;3.00;;;9.60;99.50;;;8.92;100.00;95732.03;5057441;28;20454;-78
2024/02/09 03:27:58;;;;;;;7.80;3.47;;;9.60;99.40;;;8.91;100.00;95742.00;5063718;28;20486;-78
2024/02/09 03:30:26;;;;;;;7.20;3.10;;;9.60;98.80;;;8.99;100.00;95759.53;5046067;28;20452;-78
2024/02/09 03:32:54;;;;;;;7.33;2.67;;;9.60;99.00;;;8.88;100.00;95755.19;5046882;28;20449;-78
2024/02/09 03:35:23;;;;;;;10.27;2.87;;;9.60;98.90;;;8.97;100.00;95759.00;5050208;28;20437;-77
2024/02/09 03:37:50;;;;;;;8.40;3.60;;;9.60;99.70;;;8.90;100.00;95755.72;5050775;28;20480;-79
2024/02/09 03:40:18;;;;;;;12.87;4.10;;;9.60;99.70;;;8.99;100.00;95761.44;5067312;28;20930;-77
2024/02/09 03:42:45;;;;;;;5.30;3.10;;;9.60;99.90;;;8.79;100.00;95736.81;5068126;28;20448;-77
2024/02/09 03:45:15;;;;;;;7.20;3.57;;;9.60;99.90;;;8.92;100.00;95758.97;5046039;28;20462;-77
2024/02/09 03:47:42;;;;;;;5.13;3.00;;;9.60;99.90;;;8.65;100.00;95714.09;5062160;28;20461;-76
2024/02/09 03:50:10;;;;;;;9.97;3.93;;;9.60;99.90;;;8.98;100.00;95760.63;5050286;28;20453;-78
2024/02/09 03:52:44;;;;;;;5.13;3.47;;;9.60;99.90;;;9.02;100.00;95761.72;5042631;28;20854;-76
2024/02/09 03:55:17;;;;;;;9.60;3.57;;;9.60;99.90;;;9.01;100.00;95762.78;5064670;28;20452;-77
2024/02/09 03:57:45;;;;;;;10.60;3.90;;;9.60;99.90;;;9.03;100.00;95757.97;5049191;28;20465;-76
2024/02/09 04:00:16;;;;;;;5.70;3.37;;;9.60;99.90;;;8.97;100.00;95753.59;5070962;28;20501;-78
2024/02/09 04:02:45;;;;;;;9.30;3.30;;;9.60;99.90;;;8.96;100.00;95765.44;5043066;28;20539;-80
2024/02/09 04:05:13;;;;;;;11.00;3.80;;;9.60;99.90;;;8.95;100.00;95749.53;5067603;28;20555;-76
2024/02/09 04:07:40;;;;;;;5.23;3.03;;;9.60;99.90;;;8.99;100.00;95759.53;5042104;28;20488;-78
2024/02/09 04:10:09;;;;;;;7.37;3.30;;;9.50;99.90;;;8.94;100.00;95737.97;5063970;28;20441;-78
2024/02/09 04:12:37;;;;;;;6.70;3.47;;;9.60;99.90;;;9.03;100.00;95757.13;5063143;28;20460;-77
2024/02/09 04:15:06;;;;;;;7.63;3.60;;;9.60;99.90;;;9.01;100.00;95759.28;5059973;28;20449;-76
2024/02/09 04:17:34;;;;;;;5.33;3.50;;;9.60;99.90;;;8.97;100.00;95750.13;5063694;28;20479;-76
2024/02/09 04:20:02;;;;;;;6.67;3.20;;;9.60;99.90;;;9.00;100.00;95761.16;5038858;28;20532;-78
2024/02/09 04:22:29;;;;;;;6.50;3.07;;;9.50;99.90;;;8.94;100.00;95743.38;5068506;28;20461;-77
2024/02/09 04:24:59;;;;;;;5.83;3.00;;;9.50;99.90;;;9.10;100.00;95751.53;5046910;28;20452;-77
2024/02/09 04:27:27;;;;;;;6.73;3.43;;;9.50;99.90;;;9.17;100.00;95757.47;5061830;28;21017;-76
2024/02/09 04:29:54;;;;;;;6.37;3.20;;;9.60;99.90;;;9.07;100.00;95739.38;5064131;28;20446;-78
2024/02/09 04:32:23;;;;;;;6.37;3.43;;;9.60;99.90;;;9.14;100.00;95744.53;5064999;28;20453;-79
2024/02/09 04:34:51;;;;;;;8.57;4.07;;;9.60;99.90;;;9.12;100.00;95754.75;5039740;28;20481;-78
2024/02/09 04:37:20;;;;;;;8.03;3.70;;;9.60;99.90;;;9.11;100.00;95742.38;5047859;28;20563;-78
2024/02/09 04:39:48;;;;;;;8.00;3.33;;;9.60;99.90;;;9.17;100.00;95736.75;5050215;28;20547;-78
2024/02/09 04:42:15;;;;;;;7.27;3.47;;;9.60;99.90;;;8.79;100.00;95688.34;5049680;28;20453;-76
2024/02/09 04:44:43;;;;;;;7.27;3.83;;;9.60;99.90;;;9.02;100.00;95724.03;5066938;28;20456;-76
2024/02/09 04:47:11;;;;;;;6.53;4.67;;;9.60;99.90;;;9.01;100.00;95727.75;5060010;28;21028;-80
2024/02/09 04:49:39;;;;;;;8.73;5.03;;;9.60;99.90;;;9.09;100.00;95728.34;5055098;28;20797;-77
2024/02/09 04:52:08;;;;;;;6.57;2.70;;;9.60;99.90;;;9.09;100.00;95720.28;5050182;28;20448;-77
2024/02/09 04:54:36;;;;;;;8.03;3.63;;;9.60;99.90;;;9.14;100.00;95714.91;5049846;28;20458;-77
2024/02/09 04:57:03;;;;;;;9.00;3.80;;;9.60;99.90;;;8.98;100.00;95708.66;5049523;28;20858;-75
2024/02/09 04:59:31;;;;;;;5.87;3.10;;;9.50;99.90;;;8.90;100.00;95704.56;5048306;28;20457;-77
2024/02/09 05:01:58;;;;;;;9.07;3.77;;;9.50;99.90;;;8.89;100.00;95698.34;5043423;28;20950;-77
2024/02/09 05:04:26;;;;;;;6.03;3.43;;;9.50;99.90;;;8.68;100.00;95661.63;5066312;28;20503;-77
2024/02/09 05:06:53;;;;;;;9.17;3.20;;;9.40;99.90;;;8.95;100.00;95699.19;5067880;28;20455;-77
2024/02/09 05:09:23;;;;;;;9.63;3.40;;;9.50;99.90;;;8.99;100.00;95694.09;5066706;28;20917;-78
2024/02/09 05:11:50;;;;;;;8.20;4.07;;;9.40;99.90;;;8.88;100.00;95699.44;5068397;28;20460;-79
2024/02/09 05:14:19;;;;;;;9.23;3.30;;;9.40;99.90;;;8.87;100.00;95703.19;5049059;28;20452;-78
2024/02/09 05:16:47;;;;;;;6.80;3.53;;;9.40;99.90;;;8.76;100.00;95691.56;5062806;28;20464;-78
2024/02/09 05:19:14;;;;;;;8.17;3.40;;;9.50;99.90;;;8.91;100.00;95701.59;5053892;28;20498;-79
2024/02/09 05:21:41;;;;;;;7.30;3.60;;;9.40;99.90;;;8.78;100.00;95697.50;5040729;28;20451;-79
2024/02/09 05:24:09;;;;;;;7.17;3.80;;;9.40;99.90;;;8.79;100.00;95712.56;5048545;28;20445;-77
2024/02/09 05:26:38;;;;;;;7.83;3.57;;;9.40;99.90;;;8.57;100.00;95674.22;5067152;28;20448;-77
2024/02/09 05:29:05;;;;;;;9.53;3.60;;;9.40;99.90;;;8.75;100.00;95708.78;5045652;28;20510;-79
2024/02/09 05:31:33;;;;;;;5.20;3.20;;;9.30;99.90;;;8.33;100.00;95653.06;5042956;28;20452;-76
2024/02/09 05:34:07;;;;;;;7.10;3.20;;;9.40;99.90;;;8.77;100.00;95698.56;5059098;28;20489;-78
2024/02/09 05:36:36;;;;;;;6.50;3.30;;;9.40;99.90;;;8.70;100.00;95695.28;5066576;28;20455;-78
2024/02/09 05:39:03;;;;;;;5.53;2.80;;;9.40;99.90;;;8.78;100.00;95705.56;5046315;28;20551;-75
2024/02/09 05:41:30;;;;;;;7.53;3.20;;;9.40;99.90;;;8.87;100.00;95705.88;5066239;28;20462;-76
2024/02/09 05:43:59;;;;;;;10.17;3.20;;;9.40;99.90;;;8.74;100.00;95701.78;5066891;28;20538;-75
2024/02/09 05:46:27;;;;;;;7.50;2.83;;;9.40;99.90;;;8.76;100.00;95696.13;5048407;28;20448;-75
2024/02/09 05:48:55;;;;;;;6.80;2.90;;;9.40;99.90;;;8.92;100.00;95691.66;5039012;28;20518;-75
2024/02/09 05:51:23;;;;;;;8.03;3.10;;;9.50;99.90;;;8.88;100.00;95698.63;5042985;28;20486;-74
2024/02/09 05:53:51;;;;;;;5.97;3.13;;;9.40;99.90;;;8.81;100.00;95684.56;5055666;28;20457;-75
2024/02/09 05:56:20;;;;;;;7.50;3.33;;;9.40;99.90;;;9.00;100.00;95693.81;5038928;28;20461;-74
2024/02/09 05:58:49;;;;;;;4.70;2.73;;;9.50;99.90;;;9.01;100.00;95690.06;5058993;28;21000;-77
2024/02/09 06:01:19;;;;;;;5.80;2.90;;;9.50;99.90;;;8.87;100.00;95673.56;5061433;28;20524;-77
2024/02/09 06:03:47;;;;;;;6.27;3.13;;;9.50;99.90;;;8.98;100.00;95674.44;5057062;28;20499;-75
2024/02/09 06:06:16;;;;;;;8.50;3.03;;;9.50;99.90;;;8.93;100.00;95650.97;5060857;28;20445;-72
2024/02/09 06:08:46;;;;;;;4.90;2.93;;;9.50;99.90;;;9.19;100.00;95669.94;5060584;28;20944;-73
2024/02/09 06:11:13;;;;;;;5.43;3.20;;;9.60;99.90;;;9.11;100.00;95669.63;5047920;28;20864;-75
2024/02/09 06:13:44;;;;;;;8.77;2.80;;;9.60;99.90;;;9.13;100.00;95675.56;5064908;28;20440;-71
2024/02/09 06:16:12;;;;;;;4.10;2.93;;;9.60;99.90;;;9.11;100.00;95661.56;5063970;28;20449;-79
2024/02/09 06:18:42;;;;;;;3.43;3.03;;;9.60;99.90;;;9.06;100.00;95671.25;5044498;28;20550;-73
2024/02/09 06:21:10;;;;;;;7.07;2.87;;;9.60;99.90;;;9.16;100.00;95667.78;5064339;28;20456;-73
2024/02/09 06:23:39;;;;;;;6.93;2.70;;;9.60;99.90;;;9.16;100.00;95667.78;5038626;28;20468;-76
2024/02/09 06:26:09;;;;;;;4.23;2.50;;;9.60;99.90;;;9.25;100.00;95676.16;5060121;28;20509;-72
2024/02/09 06:28:36;;;;;;;3.80;2.67;;;9.70;99.90;;;9.21;100.00;95673.16;5055892;28;20544;-77
2024/02/09 06:31:04;;;;;;;3.57;2.80;;;9.70;99.90;;;9.23;100.00;95662.16;5056551;28;20460;-75
2024/02/09 06:33:31;;;;;;;5.20;2.30;;;9.80;99.90;;;9.27;100.00;95670.50;5050894;28;20461;-75
2024/02/09 06:36:00;;;;;;;6.37;2.27;;;9.80;99.90;;;9.25;100.00;95659.16;5054187;28;20521;-75
2024/02/09 06:38:27;;;;;;;7.37;2.20;;;9.80;99.90;;;9.28;100.00;95678.31;5057431;28;20853;-76
2024/02/09 06:40:54;;;;;;;4.20;1.90;;;9.80;99.90;;;8.89;100.00;95608.69;5047005;28;20502;-74
2024/02/09 06:43:22;;;;;;;4.30;2.27;;;9.80;99.90;;;9.28;100.00;95678.31;5060634;28;20450;-72
2024/02/09 06:45:50;;;;;;;3.80;2.40;;;9.80;99.90;;;9.16;100.00;95642.72;5058757;28;20460;-74
2024/02/09 06:48:17;;;;;;;4.53;2.07;;;9.90;99.90;;;9.31;100.00;95683.16;5044187;28;20576;-71
2024/02/09 06:50:45;;;;;;;2.60;2.00;;;9.90;99.90;;;9.28;100.00;95689.09;5053966;28;20456;-75
2024/02/09 06:53:15;;;;;;;5.20;2.03;;;9.90;99.90;;;9.10;100.00;95628.44;5060856;28;20965;-72
2024/02/09 06:55:43;;;;;;;3.43;1.97;;;10.00;99.90;;;9.43;100.00;95687.53;5045815;28;20450;-75
2024/02/09 06:58:12;;;;;;;4.83;2.60;;;10.00;99.90;;;9.48;100.00;95692.94;5067199;28;20909;-73
2024/02/09 07:00:39;;;;;;;3.70;1.60;;;10.00;99.30;;;9.36;100.00;95685.06;5065856;28;20463;-81
2024/02/09 07:03:06;;;;;;;3.93;1.90;;;9.90;99.80;;;9.41;100.00;95689.69;5059117;28;20536;-83
2024/02/09 07:05:35;;;;;;;2.07;1.87;;;10.00;98.50;;;9.42;100.00;95685.91;5059864;28;20791;-82
2024/02/09 07:08:02;;;;;;;5.83;1.83;;;10.00;98.30;;;9.44;100.00;95697.22;5069918;28;20448;-78
2024/02/09 07:10:31;;;;;;;3.37;1.50;;;10.00;97.90;;;9.33;100.00;95685.63;5075580;28;20461;-84
2024/02/09 07:12:58;;;;;;;3.73;2.10;;;10.00;98.30;;;9.43;100.00;95693.75;5070378;28;20535;-84
2024/02/09 07:15:25;;;;;;;7.27;1.70;;;10.00;98.70;;;9.59;100.00;95699.16;5060286;28;20457;-78
2024/02/09 07:17:56;;;;;;;5.73;1.40;;;10.10;98.60;;;9.53;100.00;95708.31;5051287;28;20453;-86
2024/02/09 07:20:23;;;;;;;2.47;1.70;;;10.10;98.40;;;9.00;100.00;95645.34;5049158;28;20445;-86
2024/02/09 07:22:51;;;;;;;3.80;1.87;;;10.00;98.50;;;9.46;100.00;95700.47;5067018;28;20458;-82
2024/02/09 07:25:19;;;;;;;4.03;1.43;;;10.00;99.30;;;9.44;100.00;95697.22;5048718;28;20543;-82
2024/02/09 07:27:47;;;;;;;4.50;1.53;;;10.00;98.70;;;9.51;100.00;95708.59;5066776;28;20823;-83
2024/02/09 07:30:17;;;;;;;3.07;2.03;;;10.00;99.10;;;9.51;100.00;95708.59;5062491;28;20452;-81
2024/02/09 07:32:44;;;;;;;1.97;1.80;;;10.10;98.40;;;9.62;100.00;95704.81;5059789;28;20620;-82
2024/02/09 07:35:12;;;;;;;4.53;1.70;;;10.10;98.40;;;9.63;100.00;95709.16;5062892;28;20548;-78
2024/02/09 07:37:39;;;;;;;2.73;1.77;;;10.20;98.10;;;9.49;100.00;95705.34;5071043;28;20463;-80
2024/02/09 07:40:09;;;;;;;3.63;1.80;;;10.20;97.70;;;9.66;100.00;95707.00;5063812;28;20992;-83
2024/02/09 07:42:36;;;;;;;3.77;1.67;;;10.20;97.80;;;9.62;100.00;95699.44;5063731;28;20456;-79
2024/02/09 07:45:16;;;;;;;1.67;1.57;;;10.20;97.40;;;9.73;100.00;95705.69;5044245;28;20449;-80
2024/02/09 07:47:44;;;;;;;4.27;2.37;;;10.20;97.30;;;9.91;100.00;95709.72;5037525;28;20826;-81
2024/02/09 07:50:12;;;;;;;2.03;1.57;;;10.40;97.10;;;9.99;99.67;95710.28;5063684;28;20511;-79
2024/02/09 07:52:40;;;;;;;2.57;1.87;;;10.40;96.30;;;9.70;100.00;95708.09;5046680;28;20448;-78
2024/02/09 07:55:13;;;;;;;3.73;1.23;;;10.40;95.60;;;9.75;100.00;95718.88;5050427;28;20463;-80
2024/02/09 07:57:41;;;;;;;3.63;1.70;;;10.40;96.30;;;9.81;99.99;95703.50;5047661;28;20449;-78
2024/02/09 08:00:17;;;;;;;2.50;1.50;;;10.30;96.00;;;9.70;99.78;95700.00;5041539;28;20466;-80
2024/02/09 08:02:44;;;;;;;1.70;1.60;;;10.30;95.40;;;9.38;100.00;95655.19;5042845;28;20541;-79
2024/02/09 08:05:17;;;;;;;3.07;1.60;;;10.30;95.60;;;9.71;100.00;95707.00;5057037;28;20444;-79
2024/02/09 08:07:46;;;;;;;1.73;1.47;;;10.30;95.90;;;9.79;99.47;95703.81;5056676;28;20842;-79
2024/02/09 08:10:14;;;;;;;2.23;1.47;;;10.30;95.50;;;9.45;100.00;95655.72;5066780;28;20516;-86
2024/02/09 08:12:41;;;;;;;2.33;1.60;;;10.40;95.70;;;9.76;98.93;95710.53;5063433;28;20544;-85
2024/02/09 08:15:12;;;;;;;2.50;1.57;;;10.40;95.20;;;9.82;99.38;95708.66;5071325;28;20435;-82
2024/02/09 08:17:48;;;;;;;2.43;1.40;;;10.40;95.40;;;9.80;99.39;95710.81;5040077;28;20454;-84
2024/02/09 08:20:15;;;;;;;3.43;1.60;;;10.40;95.10;;;9.70;99.71;95689.22;5076650;28;20712;-79
2024/02/09 08:22:44;;;;;;;1.77;1.50;;;10.40;95.10;;;9.91;99.36;95717.81;5072818;28;20480;-84
2024/02/09 08:25:11;;;;;;;1.70;1.33;;;10.50;95.30;;;9.89;98.54;95693.00;5067170;28;20444;-79
2024/02/09 08:27:40;;;;;;;2.83;1.90;;;10.50;95.20;;;9.94;98.26;95711.09;5076784;28;20783;-80
2024/02/09 08:30:11;;;;;;;1.50;1.20;;;10.50;95.20;;;9.83;99.68;95706.75;5084932;28;20463;-78
2024/02/09 08:32:41;;;;;;;2.00;1.70;;;10.40;95.30;;;9.96;98.41;95708.13;5081617;28;20436;-78
2024/02/09 08:35:09;;;;;;;3.10;1.80;;;10.50;95.40;;;9.94;98.23;95710.28;5081792;28;20439;-79
2024/02/09 08:37:36;;;;;;;1.53;1.43;;;10.50;95.00;;;9.94;98.87;95718.38;5065584;28;20442;-79
2024/02/09 08:40:04;;;;;;;3.23;1.90;;;10.50;95.20;;;9.95;98.63;95706.53;5059363;28;20473;-83
2024/02/09 08:42:33;;;;;;;2.23;1.40;;;10.50;95.20;;;9.92;98.28;95718.66;5045163;28;20447;-83
2024/02/09 08:45:01;;;;;;;2.00;1.80;;;10.50;95.00;;;9.85;99.03;95716.19;5056730;28;20954;-83
2024/02/09 08:47:30;;;;;;;6.50;2.30;;;10.50;95.00;;;9.72;99.28;95676.28;5041655;28;20502;-87
2024/02/09 08:49:58;;;;;;;2.40;1.77;;;10.50;95.50;;;9.90;99.42;95707.31;5045799;28;20456;-83
2024/02/09 08:52:25;;;;;;;2.87;1.57;;;10.50;95.50;;;9.89;98.27;95676.03;5034198;28;20537;-80
2024/02/09 08:54:53;;;;;;;3.30;1.97;;;10.50;95.50;;;10.13;97.27;95713.25;5068094;28;20471;-85
2024/02/09 08:57:22;;;;;;;2.50;1.73;;;10.60;94.90;;;10.07;97.65;95702.47;5070328;28;20462;-84
2024/02/09 08:59:49;;;;;;;3.97;2.20;;;10.60;94.70;;;10.13;97.28;95711.38;5052393;28;20477;-86
2024/02/09 09:02:16;;;;;;;7.70;1.93;;;10.60;94.50;;;10.12;97.10;95696.28;5050052;28;20482;-84
2024/02/09 09:04:45;;;;;;;2.93;2.17;;;10.60;94.50;;;9.88;97.41;95650.13;5057104;28;20457;-85
2024/02/09 09:07:12;;;;;;;2.17;1.97;;;10.70;94.70;;;9.98;96.97;95668.22;5064850;28;20473;-84
2024/02/09 09:09:40;;;;;;;2.50;1.57;;;10.70;94.20;;;10.20;96.71;95703.81;5055824;28;20508;-83
2024/02/09 09:12:08;;;;;;;1.87;1.73;;;10.70;94.10;;;10.21;97.24;95700.03;5080374;28;20465;-80
2024/02/09 09:14:36;;;;;;;2.30;1.30;;;10.70;94.20;;;9.91;96.42;95645.00;5079388;28;20445;-81
2024/02/09 09:17:04;;;;;;;4.53;1.80;;;10.70;94.20;;;10.24;96.32;95684.41;5059434;28;20446;-83
2024/02/09 09:19:31;;;;;;;5.53;1.80;;;10.80;94.20;;;10.42;96.31;95710.06;5082549;28;20735;-83
2024/02/09 09:22:00;;;;;;;3.13;1.80;;;10.80;94.50;;;10.37;96.07;95701.94;5067439;28;20492;-88
2024/02/09 09:24:27;;;;;;;2.63;1.97;;;10.80;94.20;;;10.26;96.29;95687.66;5059952;28;20462;-83
2024/02/09 09:26:55;;;;;;;2.50;1.77;;;10.80;94.10;;;10.32;96.15;95691.94;5057112;28;20527;-80
2024/02/09 09:29:23;;;;;;;2.20;2.00;;;10.90;93.70;;;9.92;96.69;95638.53;5057430;28;20468;-81
2024/02/09 09:31:51;;;;;;;4.63;2.00;;;10.90;93.90;;;10.30;96.49;95691.41;5052386;28;20461;-84
2024/02/09 09:34:18;;;;;;;2.37;2.03;;;10.90;93.70;;;10.37;96.35;95694.63;5061010;28;20454;-81
2024/02/09 09:36:46;;;;;;;2.87;2.17;;;10.90;94.00;;;10.23;95.67;95669.28;5063605;28;20462;-86
2024/02/09 09:39:15;;;;;;;2.40;1.83;;;10.90;93.70;;;10.37;94.35;95651.44;5065349;28;20472;-78
2024/02/09 09:41:42;;;;;;;2.20;1.90;;;11.10;93.40;;;10.55;93.97;95668.22;5048630;28;20518;-85
2024/02/09 09:44:10;;;;;;;2.93;1.70;;;11.10;93.00;;;10.16;93.01;95597.50;5041918;28;20459;-78
2024/02/09 09:46:42;;;;;;;3.53;1.73;;;11.30;92.70;;;10.85;92.33;95688.13;5059436;28;20499;-79
2024/02/09 09:49:10;;;;;;;3.00;1.90;;;11.40;92.40;;;11.19;91.50;95682.06;5043936;28;20541;-81
2024/02/09 09:51:41;;;;;;;3.77;2.37;;;11.50;92.30;;;11.33;89.60;95683.09;5065373;28;20488;-80
2024/02/09 09:54:10;;;;;;;2.30;1.37;;;11.70;91.60;;;11.34;89.20;95695.53;5065578;28;21013;-78
2024/02/09 09:56:44;;;;;;;3.10;2.67;;;11.80;91.20;;;11.48;87.95;95684.91;5064555;28;20436;-76
2024/02/09 09:59:12;;;;;;;1.80;1.57;;;11.90;90.90;;;11.54;86.97;95688.38;5075574;28;20482;-77
2024/02/09 10:01:40;;;;;;;2.70;1.80;;;12.10;90.50;;;11.41;88.00;95689.00;5078544;28;20436;-76
2024/02/09 10:04:09;;;;;;;3.43;2.00;;;12.10;90.50;;;11.50;88.35;95700.84;5060835;28;20491;-73
2024/02/09 10:06:36;;;;;;;3.10;2.03;;;12.00;90.60;;;11.16;88.04;95647.50;5072955;28;20456;-78
2024/02/09 10:09:04;;;;;;;3.13;2.00;;;12.10;90.40;;;11.46;87.17;95686.28;5062972;28;20461;-81
2024/02/09 10:11:33;;;;;;;3.20;2.63;;;12.10;90.20;;;11.86;85.29;95687.13;5061152;28;20468;-82
2024/02/09 10:14:02;;;;;;;2.77;1.90;;;12.30;90.20;;;11.84;85.15;95694.72;5047178;28;20568;-82
2024/02/09 10:16:29;;;;;;;3.40;1.80;;;12.30;89.90;;;11.88;85.01;95694.97;5066741;28;20449;-81
2024/02/09 10:18:57;;;;;;;1.70;1.60;;;12.40;89.70;;;11.75;84.32;95690.97;5061729;28;20476;-81
2024/02/09 10:21:25;;;;;;;3.33;2.00;;;12.40;89.20;;;11.77;84.83;95692.31;5071921;28;20479;-86
2024/02/09 10:23:52;;;;;;;2.90;1.97;;;12.30;89.30;;;11.89;84.29;95697.38;5051604;28;20467;-86
2024/02/09 10:26:20;;;;;;;4.90;2.00;;;12.30;89.30;;;11.74;85.11;95687.47;5062044;28;20461;-80
2024/02/09 10:28:51;;;;;;;6.50;4.00;;;12.30;89.30;;;11.62;84.86;95641.84;5061340;28;20456;-79
2024/02/09 10:31:22;;;;;;;2.87;2.33;;;12.30;89.70;;;11.88;85.14;95678.72;5067210;28;20480;-85
2024/02/09 10:33:49;;;;;;;2.33;2.13;;;12.30;89.50;;;11.90;84.45;95680.06;5075083;28;20540;-84
2024/02/09 10:36:16;;;;;;;4.03;2.20;;;12.40;89.30;;;11.66;85.76;95668.31;5076587;28;20460;-84
2024/02/09 10:38:48;;;;;;;4.23;2.77;;;12.30;89.30;;;11.62;86.02;95671.59;5062290;28;20467;-84
2024/02/09 10:41:18;;;;;;;3.80;2.60;;;12.20;89.50;;;11.90;85.68;95671.97;5059237;28;20458;-76
2024/02/09 10:43:51;;;;;;;4.40;2.50;;;12.30;90.00;;;12.38;83.47;95670.53;5085808;28;20465;-76
2024/02/09 10:46:23;;;;;;;3.27;2.17;;;12.60;89.70;;;12.04;83.66;95638.84;5081297;28;20526;-75
2024/02/09 10:48:54;;;;;;;2.47;1.63;;;12.80;89.10;;;12.29;83.94;95667.63;5076288;28;20449;-75
2024/02/09 10:51:27;;;;;;;2.77;2.03;;;12.80;89.20;;;12.30;82.86;95663.81;5074567;28;20468;-79
2024/02/09 10:54:03;;;;;;;4.63;2.20;;;12.90;88.60;;;12.02;82.96;95619.38;5069198;28;20532;-79
2024/02/09 10:56:35;;;;;;;3.57;2.07;;;12.90;88.50;;;12.37;82.65;95666.19;5059200;28;20478;-86
2024/02/09 10:59:06;;;;;;;4.63;2.67;;;13.00;88.30;;;12.62;82.25;95658.91;5058927;28;20540;-82
2024/02/09 11:01:36;;;;;;;3.60;2.50;;;13.10;88.60;;;12.79;81.23;95635.97;5052700;28;20458;-82
2024/02/09 11:04:04;;;;;;;3.60;2.30;;;13.30;88.40;;;12.82;81.23;95657.09;5070074;28;20517;-86
2024/02/09 11:06:32;;;;;;;1.97;1.60;;;13.30;87.90;;;12.80;79.99;95649.25;5069688;28;20454;-86
2024/02/09 11:09:00;;;;;;;3.33;1.70;;;13.40;87.40;;;12.94;80.13;95643.16;5050880;28;20471;-87
2024/02/09 11:11:28;;;;;;;3.80;2.13;;;13.50;87.40;;;12.84;79.59;95603.44;5049874;28;20539;-82
2024/02/09 11:14:09;;;;;;;2.33;1.43;;;13.60;87.40;;;13.14;79.44;95632.03;5063338;28;20489;-84
2024/02/09 11:16:48;;;;;;;3.00;2.17;;;13.70;87.30;;;13.20;78.73;95615.72;5047541;28;21192;-83
2024/02/09 11:19:17;;;;;;;3.40;1.63;;;13.70;86.80;;;13.14;79.25;95609.56;5046973;28;20469;-83
2024/02/09 11:21:48;;;;;;;2.80;2.10;;;13.80;87.10;;;12.91;78.76;95627.47;5061817;28;20462;-84
2024/02/09 11:24:17;;;;;;;3.33;2.10;;;13.60;86.40;;;13.09;78.15;95617.75;5052598;28;20457;-77
2024/02/09 11:26:47;;;;;;;2.90;1.83;;;13.70;86.30;;;13.46;76.67;95611.59;5069038;28;20442;-83
2024/02/09 11:29:17;;;;;;;1.73;1.33;;;13.80;86.10;;;13.50;76.61;95617.25;5056151;28;20937;-83
2024/02/09 11:31:50;;;;;;;3.77;2.53;;;13.90;85.90;;;13.71;76.32;95611.50;5057114;28;20476;-80
2024/02/09 11:34:19;;;;;;;3.60;1.73;;;14.10;86.00;;;13.70;75.19;95609.88;5061562;28;20454;-82
2024/02/09 11:36:46;;;;;;;3.80;1.97;;;14.20;85.30;;;13.85;74.24;95593.38;5057349;28;21453;-83
2024/02/09 11:39:14;;;;;;;3.93;2.50;;;14.40;85.00;;;14.04;73.72;95595.25;5039714;28;20455;-79
2024/02/09 11:41:42;;;;;;;2.10;1.90;;;14.60;84.80;;;13.97;74.10;95605.69;5059313;28;20472;-75
2024/02/09 11:44:09;;;;;;;3.40;2.00;;;14.50;84.50;;;14.19;72.65;95593.41;5057659;28;20463;-76
2024/02/09 11:46:37;;;;;;;4.60;2.00;;;14.60;84.20;;;14.20;72.58;95598.50;5055732;28;20569;-78
2024/02/09 11:49:07;;;;;;;4.87;1.90;;;14.60;83.90;;;14.15;72.63;95593.19;5053484;28;20451;-76
2024/02/09 11:51:34;;;;;;;2.50;1.90;;;14.60;83.80;;;14.33;71.88;95596.94;5060124;28;21407;-79
2024/02/09 11:54:03;;;;;;;3.43;1.93;;;14.70;83.70;;;14.15;70.56;95576.88;5062998;28;20448;-78
2024/02/09 11:56:31;;;;;;;2.57;1.77;;;14.80;82.90;;;14.27;70.31;95595.41;5061455;28;20474;-78
2024/02/09 11:58:59;;;;;;;3.03;1.83;;;14.70;82.60;;;14.32;71.43;95598.03;5050889;28;21053;-80
2024/02/09 12:01:26;;;;;;;2.00;1.30;;;14.80;82.80;;;14.55;70.55;95595.47;5061591;28;20498;-78
2024/02/09 12:03:53;;;;;;;2.67;1.70;;;14.90;82.70;;;14.96;67.87;95596.59;5038441;28;20478;-79
2024/02/09 12:06:22;;;;;;;3.23;1.87;;;15.20;82.00;;;14.49;69.09;95593.97;5059208;28;20534;-78
2024/02/09 12:08:50;;;;;;;6.87;1.70;;;15.20;81.70;;;14.70;69.27;95588.91;5060344;28;20825;-79
2024/02/09 12:11:18;;;;;;;2.17;1.70;;;15.10;82.00;;;14.47;69.94;95591.53;5063136;28;20826;-79
2024/02/09 12:13:46;;;;;;;2.70;1.50;;;15.10;82.00;;;14.41;69.08;95585.38;5049503;28;20999;-77
2024/02/09 12:16:16;;;;;;;2.17;1.53;;;15.00;81.30;;;14.23;69.29;95584.34;5049250;28;20460;-77
2024/02/09 12:18:45;;;;;;;4.10;1.73;;;14.90;81.20;;;14.08;68.98;95582.69;5054541;28;20558;-77